sensor_id;sensor_type;location;lat;lon;timestamp;temperature;humidity
39219;DHT22;24934;52.752;6.964;2023-08-21T00:00:05;16.10;99.90
39219;DHT22;24934;52.752;6.964;2023-08-21T00:02:31;16.10;99.90
39219;DHT22;24934;52.752;6.964;2023-08-21T00:04:57;16.00;99.90
39219;DHT22;24934;52.752;6.964;2023-08-21T00:07:22;16.00;99.90
39219;DHT22;24934;52.752;6.964;2023-08-21T00:09:48;15.90;99.90
39219;DHT22;24934;52.752;6.964;2023-08-21T00:12:14;15.90;99.90
39219;DHT22;24934;52.752;6.964;2023-08-21T00:14:40;15.90;99.90
39219;DHT22;24934;52.752;6.964;2023-08-21T00:17:05;15.80;99.90
39219;DHT22;24934;52.752;6.964;2023-08-21T00:19:32;15.70;99.90
39219;DHT22;24934;52.752;6.964;2023-08-21T00:21:58;15.60;99.90
39219;DHT22;24934;52.752;6.964;2023-08-21T00:24:23;15.50;99.90
39219;DHT22;24934;52.752;6.964;2023-08-21T00:26:49;15.40;99.90
39219;DHT22;24934;52.752;6.964;2023-08-21T00:29:14;15.40;99.90
39219;DHT22;24934;52.752;6.964;2023-08-21T00:31:40;15.40;99.90
39219;DHT22;24934;52.752;6.964;2023-08-21T00:34:06;15.40;99.90
39219;DHT22;24934;52.752;6.964;2023-08-21T00:36:31;15.40;99.90
39219;DHT22;24934;52.752;6.964;2023-08-21T00:38:57;15.40;99.90
39219;DHT22;24934;52.752;6.964;2023-08-21T00:41:23;15.40;99.90
39219;DHT22;24934;52.752;6.964;2023-08-21T00:43:49;15.40;99.90
39219;DHT22;24934;52.752;6.964;2023-08-21T00:46:15;15.40;99.90
39219;DHT22;24934;52.752;6.964;2023-08-21T00:48:43;15.50;99.90
39219;DHT22;24934;52.752;6.964;2023-08-21T00:51:09;15.50;99.90
39219;DHT22;24934;52.752;6.964;2023-08-21T00:53:36;15.50;99.90
39219;DHT22;24934;52.752;6.964;2023-08-21T00:56:02;15.40;99.90
39219;DHT22;24934;52.752;6.964;2023-08-21T00:58:28;15.40;99.90
39219;DHT22;24934;52.752;6.964;2023-08-21T01:00:54;15.30;99.90
39219;DHT22;24934;52.752;6.964;2023-08-21T01:03:20;15.30;99.90
39219;DHT22;24934;52.752;6.964;2023-08-21T01:05:45;15.30;99.90
39219;DHT22;24934;52.752;6.964;2023-08-21T01:16:59;15.10;99.90
39219;DHT22;24934;52.752;6.964;2023-08-21T01:19:43;15.10;99.90
39219;DHT22;24934;52.752;6.964;2023-08-21T01:22:09;15.20;99.90
39219;DHT22;24934;52.752;6.964;2023-08-21T01:24:35;15.20;99.90
39219;DHT22;24934;52.752;6.964;2023-08-21T01:27:03;15.20;99.90
39219;DHT22;24934;52.752;6.964;2023-08-21T01:29:29;15.20;99.90
39219;DHT22;24934;52.752;6.964;2023-08-21T01:32:05;15.10;99.90
39219;DHT22;24934;52.752;6.964;2023-08-21T01:34:33;15.10;99.90
39219;DHT22;24934;52.752;6.964;2023-08-21T01:37:01;15.10;99.90
39219;DHT22;24934;52.752;6.964;2023-08-21T01:39:28;15.10;99.90
39219;DHT22;24934;52.752;6.964;2023-08-21T01:41:54;15.10;99.90
39219;DHT22;24934;52.752;6.964;2023-08-21T01:44:21;15.20;99.90
39219;DHT22;24934;52.752;6.964;2023-08-21T01:46:47;15.30;99.90
39219;DHT22;24934;52.752;6.964;2023-08-21T01:49:12;15.30;99.90
39219;DHT22;24934;52.752;6.964;2023-08-21T01:51:38;15.30;99.90
39219;DHT22;24934;52.752;6.964;2023-08-21T01:54:03;15.40;99.90
39219;DHT22;24934;52.752;6.964;2023-08-21T01:56:29;15.40;99.90
39219;DHT22;24934;52.752;6.964;2023-08-21T01:58:55;15.40;99.90
39219;DHT22;24934;52.752;6.964;2023-08-21T02:01:20;15.40;99.90
39219;DHT22;24934;52.752;6.964;2023-08-21T02:03:46;15.40;99.90
39219;DHT22;24934;52.752;6.964;2023-08-21T02:06:12;15.40;99.90
39219;DHT22;24934;52.752;6.964;2023-08-21T02:08:37;15.30;99.90
39219;DHT22;24934;52.752;6.964;2023-08-21T02:11:03;15.30;99.90
39219;DHT22;24934;52.752;6.964;2023-08-21T02:13:28;15.20;99.90
39219;DHT22;24934;52.752;6.964;2023-08-21T02:15:54;15.20;99.90
39219;DHT22;24934;52.752;6.964;2023-08-21T02:18:20;15.10;99.90
39219;DHT22;24934;52.752;6.964;2023-08-21T02:20:47;15.10;99.90
39219;DHT22;24934;52.752;6.964;2023-08-21T02:23:16;15.00;99.90
39219;DHT22;24934;52.752;6.964;2023-08-21T02:25:42;15.00;99.90
39219;DHT22;24934;52.752;6.964;2023-08-21T02:28:07;14.90;99.90
39219;DHT22;24934;52.752;6.964;2023-08-21T02:30:33;14.90;99.90
39219;DHT22;24934;52.752;6.964;2023-08-21T02:32:59;14.90;99.90
39219;DHT22;24934;52.752;6.964;2023-08-21T02:35:24;15.00;99.90
39219;DHT22;24934;52.752;6.964;2023-08-21T02:37:50;14.90;99.90
39219;DHT22;24934;52.752;6.964;2023-08-21T02:40:17;14.90;99.90
39219;DHT22;24934;52.752;6.964;2023-08-21T02:42:43;14.90;99.90
39219;DHT22;24934;52.752;6.964;2023-08-21T02:45:09;14.90;99.90
39219;DHT22;24934;52.752;6.964;2023-08-21T02:47:39;14.90;99.90
39219;DHT22;24934;52.752;6.964;2023-08-21T02:50:06;14.80;99.90
39219;DHT22;24934;52.752;6.964;2023-08-21T02:52:34;14.80;99.90
39219;DHT22;24934;52.752;6.964;2023-08-21T02:55:01;14.70;99.90
39219;DHT22;24934;52.752;6.964;2023-08-21T02:57:28;14.60;99.90
39219;DHT22;24934;52.752;6.964;2023-08-21T02:59:54;14.50;99.90
39219;DHT22;24934;52.752;6.964;2023-08-21T03:02:20;14.50;99.90
39219;DHT22;24934;52.752;6.964;2023-08-21T03:04:46;14.50;99.90
39219;DHT22;24934;52.752;6.964;2023-08-21T03:07:12;14.50;99.90
39219;DHT22;24934;52.752;6.964;2023-08-21T03:09:39;14.50;99.90
39219;DHT22;24934;52.752;6.964;2023-08-21T03:12:05;14.50;99.90
39219;DHT22;24934;52.752;6.964;2023-08-21T03:14:31;14.40;99.90
39219;DHT22;24934;52.752;6.964;2023-08-21T03:16:57;14.30;99.90
39219;DHT22;24934;52.752;6.964;2023-08-21T03:19:23;14.30;99.90
39219;DHT22;24934;52.752;6.964;2023-08-21T03:21:48;14.30;99.90
39219;DHT22;24934;52.752;6.964;2023-08-21T03:24:14;14.30;99.90
39219;DHT22;24934;52.752;6.964;2023-08-21T03:26:41;14.30;99.90
39219;DHT22;24934;52.752;6.964;2023-08-21T03:29:07;14.30;99.90
39219;DHT22;24934;52.752;6.964;2023-08-21T03:31:33;14.20;99.90
39219;DHT22;24934;52.752;6.964;2023-08-21T03:33:58;14.20;99.90
39219;DHT22;24934;52.752;6.964;2023-08-21T03:36:24;14.10;99.90
39219;DHT22;24934;52.752;6.964;2023-08-21T03:39:00;14.10;99.90
39219;DHT22;24934;52.752;6.964;2023-08-21T03:41:26;14.10;99.90
39219;DHT22;24934;52.752;6.964;2023-08-21T03:43:52;14.10;99.90
39219;DHT22;24934;52.752;6.964;2023-08-21T03:46:17;14.00;99.90
39219;DHT22;24934;52.752;6.964;2023-08-21T03:48:43;14.00;99.90
39219;DHT22;24934;52.752;6.964;2023-08-21T03:51:09;14.00;99.90
39219;DHT22;24934;52.752;6.964;2023-08-21T03:53:35;13.90;99.90
39219;DHT22;24934;52.752;6.964;2023-08-21T03:56:00;13.80;99.90
39219;DHT22;24934;52.752;6.964;2023-08-21T03:58:26;13.90;99.90
39219;DHT22;24934;52.752;6.964;2023-08-21T04:00:52;13.80;99.90
39219;DHT22;24934;52.752;6.964;2023-08-21T04:03:19;13.90;99.90
39219;DHT22;24934;52.752;6.964;2023-08-21T04:05:45;13.90;99.90
39219;DHT22;24934;52.752;6.964;2023-08-21T04:08:11;13.90;99.90
39219;DHT22;24934;52.752;6.964;2023-08-21T04:10:37;13.80;99.90
39219;DHT22;24934;52.752;6.964;2023-08-21T04:13:04;13.90;99.90
39219;DHT22;24934;52.752;6.964;2023-08-21T04:15:30;14.00;99.90
39219;DHT22;24934;52.752;6.964;2023-08-21T04:17:56;14.00;99.90
39219;DHT22;24934;52.752;6.964;2023-08-21T04:20:21;13.90;99.90
39219;DHT22;24934;52.752;6.964;2023-08-21T04:22:48;13.90;99.90
39219;DHT22;24934;52.752;6.964;2023-08-21T04:25:14;13.90;99.90
39219;DHT22;24934;52.752;6.964;2023-08-21T04:27:39;13.90;99.90
39219;DHT22;24934;52.752;6.964;2023-08-21T04:30:06;13.90;99.90
39219;DHT22;24934;52.752;6.964;2023-08-21T04:32:31;13.80;99.90
39219;DHT22;24934;52.752;6.964;2023-08-21T04:34:57;13.80;99.90
39219;DHT22;24934;52.752;6.964;2023-08-21T04:37:23;13.80;99.90
39219;DHT22;24934;52.752;6.964;2023-08-21T04:39:53;13.80;99.90
39219;DHT22;24934;52.752;6.964;2023-08-21T04:42:18;13.80;99.90
39219;DHT22;24934;52.752;6.964;2023-08-21T04:44:44;13.80;99.90
39219;DHT22;24934;52.752;6.964;2023-08-21T04:47:24;13.80;99.90
39219;DHT22;24934;52.752;6.964;2023-08-21T04:49:52;13.80;99.90
39219;DHT22;24934;52.752;6.964;2023-08-21T04:52:22;13.90;99.90
39219;DHT22;24934;52.752;6.964;2023-08-21T04:54:48;14.00;99.90
39219;DHT22;24934;52.752;6.964;2023-08-21T04:57:14;14.00;99.90
39219;DHT22;24934;52.752;6.964;2023-08-21T04:59:40;14.00;99.90
39219;DHT22;24934;52.752;6.964;2023-08-21T05:02:06;14.10;99.90
39219;DHT22;24934;52.752;6.964;2023-08-21T05:04:32;14.10;99.90
39219;DHT22;24934;52.752;6.964;2023-08-21T05:06:58;14.10;99.90
39219;DHT22;24934;52.752;6.964;2023-08-21T05:09:24;14.10;99.90
39219;DHT22;24934;52.752;6.964;2023-08-21T05:11:49;14.20;99.90
39219;DHT22;24934;52.752;6.964;2023-08-21T05:14:15;14.20;99.90
39219;DHT22;24934;52.752;6.964;2023-08-21T05:16:41;14.20;99.90
39219;DHT22;24934;52.752;6.964;2023-08-21T05:19:07;14.30;99.90
39219;DHT22;24934;52.752;6.964;2023-08-21T05:21:33;14.50;99.90
39219;DHT22;24934;52.752;6.964;2023-08-21T05:23:58;15.20;99.90
39219;DHT22;24934;52.752;6.964;2023-08-21T05:26:24;16.10;99.90
39219;DHT22;24934;52.752;6.964;2023-08-21T05:28:49;16.90;99.90
39219;DHT22;24934;52.752;6.964;2023-08-21T05:31:15;17.90;99.90
39219;DHT22;24934;52.752;6.964;2023-08-21T05:33:41;18.70;99.90
39219;DHT22;24934;52.752;6.964;2023-08-21T05:36:06;19.20;99.90
39219;DHT22;24934;52.752;6.964;2023-08-21T05:38:32;19.20;99.90
39219;DHT22;24934;52.752;6.964;2023-08-21T05:40:58;19.00;99.90
39219;DHT22;24934;52.752;6.964;2023-08-21T05:43:24;18.70;99.90
39219;DHT22;24934;52.752;6.964;2023-08-21T05:45:50;18.30;99.90
39219;DHT22;24934;52.752;6.964;2023-08-21T05:48:15;18.00;99.90
39219;DHT22;24934;52.752;6.964;2023-08-21T05:50:43;17.80;99.90
39219;DHT22;24934;52.752;6.964;2023-08-21T05:53:08;17.60;99.90
39219;DHT22;24934;52.752;6.964;2023-08-21T05:55:36;17.50;99.90
39219;DHT22;24934;52.752;6.964;2023-08-21T05:58:02;17.50;99.90
39219;DHT22;24934;52.752;6.964;2023-08-21T06:00:28;17.60;99.90
39219;DHT22;24934;52.752;6.964;2023-08-21T06:02:57;17.50;99.90
39219;DHT22;24934;52.752;6.964;2023-08-21T06:05:23;17.50;99.90
39219;DHT22;24934;52.752;6.964;2023-08-21T06:07:48;17.50;99.90
39219;DHT22;24934;52.752;6.964;2023-08-21T06:10:14;17.50;99.90
39219;DHT22;24934;52.752;6.964;2023-08-21T06:12:41;17.50;99.90
39219;DHT22;24934;52.752;6.964;2023-08-21T06:15:07;17.50;99.90
39219;DHT22;24934;52.752;6.964;2023-08-21T06:17:34;17.50;99.90
39219;DHT22;24934;52.752;6.964;2023-08-21T06:20:00;17.50;99.90
39219;DHT22;24934;52.752;6.964;2023-08-21T06:22:27;17.50;99.90
39219;DHT22;24934;52.752;6.964;2023-08-21T06:24:53;17.60;99.90
39219;DHT22;24934;52.752;6.964;2023-08-21T06:27:18;17.70;99.90
39219;DHT22;24934;52.752;6.964;2023-08-21T06:29:44;17.80;99.90
39219;DHT22;24934;52.752;6.964;2023-08-21T06:32:09;17.90;99.90
39219;DHT22;24934;52.752;6.964;2023-08-21T06:34:35;18.00;99.90
39219;DHT22;24934;52.752;6.964;2023-08-21T06:37:01;18.00;99.90
39219;DHT22;24934;52.752;6.964;2023-08-21T06:39:27;18.20;99.90
39219;DHT22;24934;52.752;6.964;2023-08-21T06:41:56;18.20;99.90
39219;DHT22;24934;52.752;6.964;2023-08-21T06:44:21;18.30;99.90
39219;DHT22;24934;52.752;6.964;2023-08-21T06:46:47;18.40;99.90
39219;DHT22;24934;52.752;6.964;2023-08-21T06:49:13;18.50;99.90
39219;DHT22;24934;52.752;6.964;2023-08-21T06:51:38;18.70;99.90
39219;DHT22;24934;52.752;6.964;2023-08-21T06:54:04;18.80;99.90
39219;DHT22;24934;52.752;6.964;2023-08-21T06:56:29;18.90;99.90
39219;DHT22;24934;52.752;6.964;2023-08-21T06:58:55;19.40;99.90
39219;DHT22;24934;52.752;6.964;2023-08-21T07:01:24;20.20;99.90
39219;DHT22;24934;52.752;6.964;2023-08-21T07:03:50;20.80;99.90
39219;DHT22;24934;52.752;6.964;2023-08-21T07:06:15;21.20;99.90
39219;DHT22;24934;52.752;6.964;2023-08-21T07:08:41;21.20;99.90
39219;DHT22;24934;52.752;6.964;2023-08-21T07:11:07;21.20;99.90
39219;DHT22;24934;52.752;6.964;2023-08-21T07:13:37;21.30;99.90
39219;DHT22;24934;52.752;6.964;2023-08-21T07:16:04;21.30;99.90
39219;DHT22;24934;52.752;6.964;2023-08-21T07:18:34;21.30;99.90
39219;DHT22;24934;52.752;6.964;2023-08-21T07:21:01;21.30;99.90
39219;DHT22;24934;52.752;6.964;2023-08-21T07:23:28;21.20;99.90
39219;DHT22;24934;52.752;6.964;2023-08-21T07:25:54;21.20;99.90
39219;DHT22;24934;52.752;6.964;2023-08-21T07:28:20;21.30;99.90
39219;DHT22;24934;52.752;6.964;2023-08-21T07:30:46;21.30;99.90
39219;DHT22;24934;52.752;6.964;2023-08-21T07:33:11;21.30;99.90
39219;DHT22;24934;52.752;6.964;2023-08-21T07:35:37;21.50;99.90
39219;DHT22;24934;52.752;6.964;2023-08-21T07:38:03;22.10;99.90
39219;DHT22;24934;52.752;6.964;2023-08-21T07:40:29;23.40;99.90
39219;DHT22;24934;52.752;6.964;2023-08-21T07:42:54;24.90;99.90
39219;DHT22;24934;52.752;6.964;2023-08-21T07:45:20;26.40;99.90
39219;DHT22;24934;52.752;6.964;2023-08-21T07:47:46;27.80;99.90
39219;DHT22;24934;52.752;6.964;2023-08-21T07:50:12;28.40;99.90
39219;DHT22;24934;52.752;6.964;2023-08-21T07:52:39;29.40;99.90
39219;DHT22;24934;52.752;6.964;2023-08-21T07:55:05;30.30;99.90
39219;DHT22;24934;52.752;6.964;2023-08-21T07:57:31;30.20;99.90
39219;DHT22;24934;52.752;6.964;2023-08-21T07:59:57;30.40;99.90
39219;DHT22;24934;52.752;6.964;2023-08-21T08:02:23;30.60;99.90
39219;DHT22;24934;52.752;6.964;2023-08-21T08:04:49;31.80;99.90
39219;DHT22;24934;52.752;6.964;2023-08-21T08:07:15;32.30;99.90
39219;DHT22;24934;52.752;6.964;2023-08-21T08:09:41;32.50;99.90
39219;DHT22;24934;52.752;6.964;2023-08-21T08:12:07;33.20;99.90
39219;DHT22;24934;52.752;6.964;2023-08-21T08:14:32;33.30;99.90
39219;DHT22;24934;52.752;6.964;2023-08-21T08:16:59;33.30;99.90
39219;DHT22;24934;52.752;6.964;2023-08-21T08:19:25;33.20;99.90
39219;DHT22;24934;52.752;6.964;2023-08-21T08:21:51;32.90;99.90
39219;DHT22;24934;52.752;6.964;2023-08-21T08:24:17;33.10;99.90
39219;DHT22;24934;52.752;6.964;2023-08-21T08:26:42;32.70;99.90
39219;DHT22;24934;52.752;6.964;2023-08-21T08:29:09;32.60;99.90
39219;DHT22;24934;52.752;6.964;2023-08-21T08:31:34;33.30;99.90
39219;DHT22;24934;52.752;6.964;2023-08-21T08:34:00;33.00;99.90
39219;DHT22;24934;52.752;6.964;2023-08-21T08:36:26;32.40;99.90
39219;DHT22;24934;52.752;6.964;2023-08-21T08:38:51;32.60;99.90
39219;DHT22;24934;52.752;6.964;2023-08-21T08:41:38;33.00;99.90
39219;DHT22;24934;52.752;6.964;2023-08-21T08:44:07;33.50;99.90
39219;DHT22;24934;52.752;6.964;2023-08-21T08:46:32;33.40;99.90
39219;DHT22;24934;52.752;6.964;2023-08-21T08:48:59;33.70;99.90
39219;DHT22;24934;52.752;6.964;2023-08-21T08:51:28;33.20;99.90
39219;DHT22;24934;52.752;6.964;2023-08-21T08:53:54;33.80;99.90
39219;DHT22;24934;52.752;6.964;2023-08-21T08:56:20;33.50;99.90
39219;DHT22;24934;52.752;6.964;2023-08-21T08:58:46;33.50;99.90
39219;DHT22;24934;52.752;6.964;2023-08-21T09:01:12;33.20;99.90
39219;DHT22;24934;52.752;6.964;2023-08-21T09:03:38;33.40;99.90
39219;DHT22;24934;52.752;6.964;2023-08-21T09:06:04;33.40;99.90
39219;DHT22;24934;52.752;6.964;2023-08-21T09:08:30;33.90;99.90
39219;DHT22;24934;52.752;6.964;2023-08-21T09:10:55;33.50;99.60
39219;DHT22;24934;52.752;6.964;2023-08-21T09:13:21;33.70;99.90
39219;DHT22;24934;52.752;6.964;2023-08-21T09:15:54;33.80;99.50
39219;DHT22;24934;52.752;6.964;2023-08-21T09:18:20;34.90;98.40
39219;DHT22;24934;52.752;6.964;2023-08-21T09:20:46;34.50;98.50
39219;DHT22;24934;52.752;6.964;2023-08-21T09:23:17;34.70;98.90
39219;DHT22;24934;52.752;6.964;2023-08-21T09:25:45;34.80;99.50
39219;DHT22;24934;52.752;6.964;2023-08-21T09:28:17;33.70;98.10
39219;DHT22;24934;52.752;6.964;2023-08-21T09:30:52;32.50;98.80
39219;DHT22;24934;52.752;6.964;2023-08-21T09:33:20;31.90;99.80
39219;DHT22;24934;52.752;6.964;2023-08-21T09:35:47;31.30;99.90
39219;DHT22;24934;52.752;6.964;2023-08-21T09:38:13;31.10;99.90
39219;DHT22;24934;52.752;6.964;2023-08-21T09:40:43;30.60;99.90
39219;DHT22;24934;52.752;6.964;2023-08-21T09:43:11;30.60;99.90
39219;DHT22;24934;52.752;6.964;2023-08-21T09:45:37;31.50;99.90
39219;DHT22;24934;52.752;6.964;2023-08-21T09:48:03;31.60;99.90
39219;DHT22;24934;52.752;6.964;2023-08-21T09:50:30;31.30;99.40
39219;DHT22;24934;52.752;6.964;2023-08-21T09:52:59;31.50;98.80
39219;DHT22;24934;52.752;6.964;2023-08-21T09:55:24;32.10;98.30
39219;DHT22;24934;52.752;6.964;2023-08-21T09:57:58;32.20;97.30
39219;DHT22;24934;52.752;6.964;2023-08-21T10:00:30;32.90;97.10
39219;DHT22;24934;52.752;6.964;2023-08-21T10:03:01;32.70;97.30
39219;DHT22;24934;52.752;6.964;2023-08-21T10:05:28;33.00;97.00
39219;DHT22;24934;52.752;6.964;2023-08-21T10:07:56;32.80;97.00
39219;DHT22;24934;52.752;6.964;2023-08-21T10:10:23;32.70;96.30
39219;DHT22;24934;52.752;6.964;2023-08-21T10:12:49;33.00;98.00
39219;DHT22;24934;52.752;6.964;2023-08-21T10:15:15;33.20;97.60
39219;DHT22;24934;52.752;6.964;2023-08-21T10:17:43;33.20;97.80
39219;DHT22;24934;52.752;6.964;2023-08-21T10:20:09;33.80;97.40
39219;DHT22;24934;52.752;6.964;2023-08-21T10:22:46;34.60;97.20
39219;DHT22;24934;52.752;6.964;2023-08-21T10:27:50;35.20;96.30
39219;DHT22;24934;52.752;6.964;2023-08-21T10:30:23;34.60;96.60
39219;DHT22;24934;52.752;6.964;2023-08-21T10:32:53;34.30;96.60
39219;DHT22;24934;52.752;6.964;2023-08-21T10:35:22;34.50;97.20
39219;DHT22;24934;52.752;6.964;2023-08-21T10:40:33;33.10;95.70
39219;DHT22;24934;52.752;6.964;2023-08-21T10:42:59;33.70;96.90
39219;DHT22;24934;52.752;6.964;2023-08-21T10:45:25;33.70;95.90
39219;DHT22;24934;52.752;6.964;2023-08-21T10:47:51;33.40;96.00
39219;DHT22;24934;52.752;6.964;2023-08-21T10:50:16;33.20;95.10
39219;DHT22;24934;52.752;6.964;2023-08-21T10:52:43;33.30;95.70
39219;DHT22;24934;52.752;6.964;2023-08-21T10:55:15;33.80;96.30
39219;DHT22;24934;52.752;6.964;2023-08-21T10:57:41;34.10;96.50
39219;DHT22;24934;52.752;6.964;2023-08-21T11:00:09;34.10;96.60
39219;DHT22;24934;52.752;6.964;2023-08-21T11:02:38;34.00;95.70
39219;DHT22;24934;52.752;6.964;2023-08-21T11:05:04;33.70;95.50
39219;DHT22;24934;52.752;6.964;2023-08-21T11:07:36;34.00;96.30
39219;DHT22;24934;52.752;6.964;2023-08-21T11:10:02;34.30;96.10
39219;DHT22;24934;52.752;6.964;2023-08-21T11:12:28;34.40;96.40
39219;DHT22;24934;52.752;6.964;2023-08-21T11:14:54;34.20;96.60
39219;DHT22;24934;52.752;6.964;2023-08-21T11:17:20;33.80;96.80
39219;DHT22;24934;52.752;6.964;2023-08-21T11:19:48;34.00;96.70
39219;DHT22;24934;52.752;6.964;2023-08-21T11:22:15;34.00;96.70
39219;DHT22;24934;52.752;6.964;2023-08-21T11:24:43;34.20;96.60
39219;DHT22;24934;52.752;6.964;2023-08-21T11:27:12;34.20;97.00
39219;DHT22;24934;52.752;6.964;2023-08-21T11:29:40;34.40;97.30
39219;DHT22;24934;52.752;6.964;2023-08-21T11:32:21;34.20;96.80
39219;DHT22;24934;52.752;6.964;2023-08-21T11:34:57;34.10;96.40
39219;DHT22;24934;52.752;6.964;2023-08-21T11:37:25;34.20;96.30
39219;DHT22;24934;52.752;6.964;2023-08-21T11:39:53;34.00;95.80
39219;DHT22;24934;52.752;6.964;2023-08-21T11:42:21;34.00;95.60
39219;DHT22;24934;52.752;6.964;2023-08-21T11:44:50;33.90;96.00
39219;DHT22;24934;52.752;6.964;2023-08-21T11:47:18;33.70;96.30
39219;DHT22;24934;52.752;6.964;2023-08-21T11:49:45;33.50;96.70
39219;DHT22;24934;52.752;6.964;2023-08-21T11:52:13;33.40;95.80
39219;DHT22;24934;52.752;6.964;2023-08-21T11:54:40;33.30;95.90
39219;DHT22;24934;52.752;6.964;2023-08-21T11:57:12;33.40;96.50
39219;DHT22;24934;52.752;6.964;2023-08-21T11:59:38;33.10;96.40
39219;DHT22;24934;52.752;6.964;2023-08-21T12:02:14;33.20;96.00
39219;DHT22;24934;52.752;6.964;2023-08-21T12:04:41;32.70;96.10
39219;DHT22;24934;52.752;6.964;2023-08-21T12:07:07;32.50;96.80
39219;DHT22;24934;52.752;6.964;2023-08-21T12:09:32;32.90;96.70
39219;DHT22;24934;52.752;6.964;2023-08-21T12:11:59;32.50;97.50
39219;DHT22;24934;52.752;6.964;2023-08-21T12:14:25;32.70;97.70
39219;DHT22;24934;52.752;6.964;2023-08-21T12:16:51;32.50;96.60
39219;DHT22;24934;52.752;6.964;2023-08-21T12:19:16;32.50;97.50
39219;DHT22;24934;52.752;6.964;2023-08-21T12:21:42;32.50;97.10
39219;DHT22;24934;52.752;6.964;2023-08-21T12:24:08;32.00;97.20
39219;DHT22;24934;52.752;6.964;2023-08-21T12:26:34;32.10;97.70
39219;DHT22;24934;52.752;6.964;2023-08-21T12:29:00;32.00;96.50
39219;DHT22;24934;52.752;6.964;2023-08-21T12:31:26;31.80;96.50
39219;DHT22;24934;52.752;6.964;2023-08-21T12:33:52;32.00;96.00
39219;DHT22;24934;52.752;6.964;2023-08-21T12:36:17;31.80;97.10
39219;DHT22;24934;52.752;6.964;2023-08-21T12:38:43;32.20;97.30
39219;DHT22;24934;52.752;6.964;2023-08-21T12:41:09;32.00;96.30
39219;DHT22;24934;52.752;6.964;2023-08-21T12:43:34;31.70;96.20
39219;DHT22;24934;52.752;6.964;2023-08-21T12:46:00;31.70;97.40
39219;DHT22;24934;52.752;6.964;2023-08-21T12:48:26;31.90;97.00
39219;DHT22;24934;52.752;6.964;2023-08-21T12:50:51;31.60;96.70
39219;DHT22;24934;52.752;6.964;2023-08-21T12:53:17;31.50;96.30
39219;DHT22;24934;52.752;6.964;2023-08-21T12:55:43;31.30;96.20
39219;DHT22;24934;52.752;6.964;2023-08-21T12:58:08;31.60;96.70
39219;DHT22;24934;52.752;6.964;2023-08-21T13:00:34;31.90;96.80
39219;DHT22;24934;52.752;6.964;2023-08-21T13:03:00;31.60;97.20
39219;DHT22;24934;52.752;6.964;2023-08-21T13:05:25;32.10;96.90
39219;DHT22;24934;52.752;6.964;2023-08-21T13:07:51;31.90;96.90
39219;DHT22;24934;52.752;6.964;2023-08-21T13:10:18;32.20;96.80
39219;DHT22;24934;52.752;6.964;2023-08-21T13:12:44;32.10;96.70
39219;DHT22;24934;52.752;6.964;2023-08-21T13:15:10;31.80;97.40
39219;DHT22;24934;52.752;6.964;2023-08-21T13:17:36;31.60;96.70
39219;DHT22;24934;52.752;6.964;2023-08-21T13:20:02;31.60;96.70
39219;DHT22;24934;52.752;6.964;2023-08-21T13:22:28;31.40;95.90
39219;DHT22;24934;52.752;6.964;2023-08-21T13:24:54;31.50;96.80
39219;DHT22;24934;52.752;6.964;2023-08-21T13:27:19;31.60;96.70
39219;DHT22;24934;52.752;6.964;2023-08-21T13:29:46;31.80;96.80
39219;DHT22;24934;52.752;6.964;2023-08-21T13:32:12;31.60;95.50
39219;DHT22;24934;52.752;6.964;2023-08-21T13:34:37;31.90;95.80
39219;DHT22;24934;52.752;6.964;2023-08-21T13:37:03;31.90;96.00
39219;DHT22;24934;52.752;6.964;2023-08-21T13:39:29;31.60;96.70
39219;DHT22;24934;52.752;6.964;2023-08-21T13:41:56;31.70;96.00
39219;DHT22;24934;52.752;6.964;2023-08-21T13:44:21;31.70;96.30
39219;DHT22;24934;52.752;6.964;2023-08-21T13:46:47;31.80;96.60
39219;DHT22;24934;52.752;6.964;2023-08-21T13:49:13;32.00;96.80
39219;DHT22;24934;52.752;6.964;2023-08-21T13:51:38;32.10;96.60
39219;DHT22;24934;52.752;6.964;2023-08-21T13:54:04;32.10;96.70
39219;DHT22;24934;52.752;6.964;2023-08-21T13:56:30;32.40;96.70
39219;DHT22;24934;52.752;6.964;2023-08-21T13:58:55;32.50;96.70
39219;DHT22;24934;52.752;6.964;2023-08-21T14:01:21;32.50;95.90
39219;DHT22;24934;52.752;6.964;2023-08-21T14:03:46;32.80;96.00
39219;DHT22;24934;52.752;6.964;2023-08-21T14:06:12;32.70;95.60
39219;DHT22;24934;52.752;6.964;2023-08-21T14:08:38;32.30;93.80
39219;DHT22;24934;52.752;6.964;2023-08-21T14:11:04;32.30;95.10
39219;DHT22;24934;52.752;6.964;2023-08-21T14:13:29;32.40;96.30
39219;DHT22;24934;52.752;6.964;2023-08-21T14:15:55;32.30;95.50
39219;DHT22;24934;52.752;6.964;2023-08-21T14:18:21;32.10;94.00
39219;DHT22;24934;52.752;6.964;2023-08-21T14:20:46;32.10;95.60
39219;DHT22;24934;52.752;6.964;2023-08-21T14:23:12;31.90;95.20
39219;DHT22;24934;52.752;6.964;2023-08-21T14:25:38;31.80;95.30
39219;DHT22;24934;52.752;6.964;2023-08-21T14:28:07;32.00;95.60
39219;DHT22;24934;52.752;6.964;2023-08-21T14:30:32;32.10;95.00
39219;DHT22;24934;52.752;6.964;2023-08-21T14:32:58;31.90;96.00
39219;DHT22;24934;52.752;6.964;2023-08-21T14:35:24;31.90;94.40
39219;DHT22;24934;52.752;6.964;2023-08-21T14:37:49;32.10;96.20
39219;DHT22;24934;52.752;6.964;2023-08-21T14:40:15;31.90;94.90
39219;DHT22;24934;52.752;6.964;2023-08-21T14:42:41;31.80;94.70
39219;DHT22;24934;52.752;6.964;2023-08-21T14:45:07;31.50;94.50
39219;DHT22;24934;52.752;6.964;2023-08-21T14:47:32;31.60;94.80
39219;DHT22;24934;52.752;6.964;2023-08-21T14:49:58;31.80;95.80
39219;DHT22;24934;52.752;6.964;2023-08-21T14:52:24;31.80;93.80
39219;DHT22;24934;52.752;6.964;2023-08-21T14:54:53;31.70;94.80
39219;DHT22;24934;52.752;6.964;2023-08-21T14:57:19;31.80;95.30
39219;DHT22;24934;52.752;6.964;2023-08-21T14:59:44;31.90;94.10
39219;DHT22;24934;52.752;6.964;2023-08-21T15:02:10;31.80;94.00
39219;DHT22;24934;52.752;6.964;2023-08-21T15:04:36;31.60;94.20
39219;DHT22;24934;52.752;6.964;2023-08-21T15:07:02;31.30;94.30
39219;DHT22;24934;52.752;6.964;2023-08-21T15:09:28;31.40;94.30
39219;DHT22;24934;52.752;6.964;2023-08-21T15:11:53;31.50;94.10
39219;DHT22;24934;52.752;6.964;2023-08-21T15:14:19;31.60;94.60
39219;DHT22;24934;52.752;6.964;2023-08-21T15:16:45;31.80;94.90
39219;DHT22;24934;52.752;6.964;2023-08-21T15:19:10;31.60;94.10
39219;DHT22;24934;52.752;6.964;2023-08-21T15:21:36;31.80;94.40
39219;DHT22;24934;52.752;6.964;2023-08-21T15:24:02;31.60;93.90
39219;DHT22;24934;52.752;6.964;2023-08-21T15:26:29;31.60;93.80
39219;DHT22;24934;52.752;6.964;2023-08-21T15:28:54;31.80;94.60
39219;DHT22;24934;52.752;6.964;2023-08-21T15:31:20;31.80;93.70
39219;DHT22;24934;52.752;6.964;2023-08-21T15:33:46;31.50;94.00
39219;DHT22;24934;52.752;6.964;2023-08-21T15:36:13;31.50;94.50
39219;DHT22;24934;52.752;6.964;2023-08-21T15:38:38;31.60;94.30